Time;durP1;ratioP1;P1;durP2;ratioP2;P2;SDS_P1;SDS_P2;PMS_P1;PMS_P2;Temp;Humidity;BMP_temperature;BMP_pressure;BME280_temperature;BME280_humidity;BME280_pressure;Samples;Min_cycle;Max_cycle;Signal;HPM_P1;HPM_P2
2022/05/19 00:01:43;;;;;;;12.60;11.40;;;;;;;;;;6557278;22;19994;-60
2022/05/19 00:04:14;;;;;;;13.55;11.45;;;;;;;;;;6557111;22;20034;-60
2022/05/19 00:06:44;;;;;;;13.25;12.15;;;;;;;;;;6530523;22;19995;-60
2022/05/19 00:09:15;;;;;;;16.13;11.77;;;;;;;;;;6530523;22;20310;-60
2022/05/19 00:11:46;;;;;;;14.43;12.88;;;;;;;;;;6529498;22;20053;-65
2022/05/19 00:14:17;;;;;;;15.18;13.63;;;;;;;;;;6528379;22;19999;-60
2022/05/19 00:16:47;;;;;;;13.50;12.30;;;;;;;;;;6527950;22;20380;-59
2022/05/19 00:19:18;;;;;;;16.50;14.95;;;;;;;;;;6527886;22;20005;-60
2022/05/19 00:21:49;;;;;;;14.25;12.88;;;;;;;;;;6527281;22;20455;-60
2022/05/19 00:24:19;;;;;;;12.65;11.73;;;;;;;;;;6527347;22;20003;-60
2022/05/19 00:29:57;;;;;;;14.52;13.52;;;;;;;;;;6555250;22;19994;-60
2022/05/19 00:32:28;;;;;;;16.33;14.88;;;;;;;;;;6528188;22;19995;-60
2022/05/19 00:34:58;;;;;;;13.45;12.25;;;;;;;;;;6527296;22;20344;-60
2022/05/19 00:37:28;;;;;;;13.80;12.45;;;;;;;;;;6555705;22;20009;-60
2022/05/19 00:39:59;;;;;;;14.98;13.50;;;;;;;;;;6555368;22;20062;-62
2022/05/19 00:42:45;;;;;;;17.63;15.60;;;;;;;;;;6527502;22;20030;-60
2022/05/19 00:45:17;;;;;;;16.30;14.93;;;;;;;;;;6527401;22;20085;-60
2022/05/19 00:47:53;;;;;;;12.57;11.45;;;;;;;;;;6527900;22;19994;-60
2022/05/19 00:50:39;;;;;;;18.02;15.05;;;;;;;;;;6527548;22;20074;-61
2022/05/19 00:53:24;;;;;;;14.65;13.32;;;;;;;;;;6527747;22;20037;-60
2022/05/19 00:55:55;;;;;;;11.55;10.55;;;;;;;;;;6527490;22;20383;-60
2022/05/19 00:58:32;;;;;;;15.40;13.80;;;;;;;;;;6527835;22;19995;-61
2022/05/19 01:01:03;;;;;;;15.23;12.80;;;;;;;;;;6555454;22;19999;-61
2022/05/19 01:03:36;;;;;;;17.23;15.52;;;;;;;;;;6526819;22;20053;-60
2022/05/19 01:06:09;;;;;;;15.25;13.88;;;;;;;;;;6526942;22;20034;-60
2022/05/19 01:08:43;;;;;;;12.43;11.55;;;;;;;;;;6526950;22;20089;-62
2022/05/19 01:11:14;;;;;;;15.63;14.38;;;;;;;;;;6527269;22;20002;-61
2022/05/19 01:13:45;;;;;;;15.13;13.70;;;;;;;;;;6527051;22;20025;-60
2022/05/19 01:16:15;;;;;;;13.80;12.30;;;;;;;;;;6527365;22;20340;-62
2022/05/19 01:18:46;;;;;;;13.65;12.65;;;;;;;;;;6527047;22;20321;-61
2022/05/19 01:21:18;;;;;;;14.73;13.55;;;;;;;;;;6527291;22;20041;-59
2022/05/19 01:23:54;;;;;;;16.38;14.75;;;;;;;;;;6553382;22;19999;-60
2022/05/19 01:26:28;;;;;;;15.38;13.95;;;;;;;;;;6554992;22;20477;-59
2022/05/19 01:28:58;;;;;;;18.08;16.05;;;;;;;;;;6527784;22;20013;-60
2022/05/19 01:31:43;;;;;;;17.55;12.73;;;;;;;;;;6554135;22;20142;-59
2022/05/19 01:37:21;;;;;;;14.32;13.20;;;;;;;;;;6555936;22;20010;-60
2022/05/19 01:40:00;;;;;;;15.88;13.45;;;;;;;;;;6555452;22;19995;-61
2022/05/19 01:45:48;;;;;;;16.42;14.73;;;;;;;;;;6554433;22;20057;-60
2022/05/19 01:48:30;;;;;;;13.50;12.40;;;;;;;;;;6527935;22;20042;-60
2022/05/19 01:51:00;;;;;;;12.93;11.93;;;;;;;;;;6527117;22;20024;-61
2022/05/19 01:53:49;;;;;;;14.88;13.27;;;;;;;;;;6527675;22;20425;-62
2022/05/19 01:56:42;;;;;;;15.77;14.35;;;;;;;;;;6556019;22;20078;-60
2022/05/19 01:59:27;;;;;;;11.60;10.88;;;;;;;;;;6527872;22;19994;-59
2022/05/19 02:02:08;;;;;;;16.80;13.75;;;;;;;;;;6528114;22;20002;-61
2022/05/19 02:04:42;;;;;;;13.75;12.60;;;;;;;;;;6527907;22;20007;-61
2022/05/19 02:07:14;;;;;;;12.63;11.50;;;;;;;;;;6555858;22;20371;-61
2022/05/19 02:27:45;;;;;;;12.60;8.75;;;;;;;;;;6480889;22;20143;-62
2022/05/19 02:30:19;;;;;;;9.02;8.43;;;;;;;;;;6432425;23;20000;-61
2022/05/19 02:32:49;;;;;;;8.32;7.72;;;;;;;;;;6432171;23;20187;-61
2022/05/19 02:35:20;;;;;;;8.77;7.45;;;;;;;;;;6452064;22;20453;-61
2022/05/19 02:37:51;;;;;;;10.32;9.30;;;;;;;;;;6463129;22;20425;-62
2022/05/19 02:43:29;;;;;;;13.00;11.85;;;;;;;;;;6490519;22;20090;-60
2022/05/19 02:46:00;;;;;;;16.88;13.27;;;;;;;;;;6463484;22;20031;-61
2022/05/19 02:48:31;;;;;;;12.52;11.73;;;;;;;;;;6463371;22;19996;-61
2022/05/19 02:51:03;;;;;;;11.50;10.73;;;;;;;;;;6462413;22;20058;-60
2022/05/19 02:53:33;;;;;;;10.50;9.68;;;;;;;;;;6462606;22;20050;-60
2022/05/19 02:56:04;;;;;;;9.63;9.00;;;;;;;;;;6490912;22;20007;-58
2022/05/19 02:58:34;;;;;;;11.70;10.68;;;;;;;;;;6463513;22;20011;-58
2022/05/19 03:01:07;;;;;;;10.85;9.73;;;;;;;;;;6490530;22;20000;-58
2022/05/19 03:03:37;;;;;;;12.88;10.05;;;;;;;;;;6463238;22;20353;-59
2022/05/19 03:06:07;;;;;;;11.43;10.35;;;;;;;;;;6491900;22;20086;-61
2022/05/19 03:08:37;;;;;;;8.50;7.75;;;;;;;;;;6465427;22;20410;-59
2022/05/19 03:11:08;;;;;;;10.07;9.30;;;;;;;;;;6464942;22;19992;-60
2022/05/19 03:13:38;;;;;;;9.18;8.68;;;;;;;;;;6463903;22;20457;-61
2022/05/19 03:16:08;;;;;;;10.07;9.23;;;;;;;;;;6464214;22;20031;-61
2022/05/19 03:18:39;;;;;;;11.88;8.18;;;;;;;;;;6464207;22;19999;-61
2022/05/19 03:21:09;;;;;;;11.52;8.65;;;;;;;;;;6464354;22;20129;-61
2022/05/19 03:23:39;;;;;;;10.38;9.57;;;;;;;;;;6464196;22;20049;-62
2022/05/19 03:26:10;;;;;;;13.30;12.20;;;;;;;;;;6464226;22;20040;-64
2022/05/19 03:28:40;;;;;;;11.65;10.52;;;;;;;;;;6478197;22;20707;-62
2022/05/19 03:31:11;;;;;;;13.50;12.07;;;;;;;;;;6490007;22;19999;-63
2022/05/19 03:33:41;;;;;;;13.35;12.23;;;;;;;;;;6489465;22;20002;-62
2022/05/19 03:36:12;;;;;;;15.33;13.93;;;;;;;;;;6490232;22;20015;-63
2022/05/19 03:38:42;;;;;;;15.05;13.85;;;;;;;;;;6490373;22;20227;-63
2022/05/19 03:41:12;;;;;;;14.07;11.70;;;;;;;;;;6490406;22;20006;-62
2022/05/19 03:43:42;;;;;;;14.10;12.82;;;;;;;;;;6490117;22;20000;-63
2022/05/19 03:46:13;;;;;;;15.57;12.55;;;;;;;;;;6490733;22;20027;-79
2022/05/19 03:48:43;;;;;;;12.93;11.75;;;;;;;;;;6537767;22;20259;-82
2022/05/19 03:51:21;;;;;;;12.45;11.57;;;;;;;;;;6538073;22;20125;-82
2022/05/19 03:53:51;;;;;;;13.25;12.20;;;;;;;;;;6537069;22;20030;-83
2022/05/19 03:56:22;;;;;;;18.60;15.88;;;;;;;;;;6509922;22;20308;-84
2022/05/19 03:58:53;;;;;;;16.40;14.90;;;;;;;;;;6512699;22;20003;-83
2022/05/19 04:01:23;;;;;;;17.23;15.70;;;;;;;;;;6540096;22;20017;-83
2022/05/19 04:03:54;;;;;;;17.20;15.57;;;;;;;;;;6511653;22;20003;-83
2022/05/19 04:06:25;;;;;;;18.17;16.58;;;;;;;;;;6512183;22;20003;-83
2022/05/19 04:08:55;;;;;;;15.73;14.20;;;;;;;;;;6539265;22;20002;-83
2022/05/19 04:11:26;;;;;;;16.53;15.10;;;;;;;;;;6539424;22;20018;-84
2022/05/19 04:13:56;;;;;;;16.33;14.65;;;;;;;;;;6539578;22;19999;-84
2022/05/19 04:16:27;;;;;;;17.08;14.93;;;;;;;;;;6540042;22;20047;-85
2022/05/19 04:18:57;;;;;;;16.15;14.65;;;;;;;;;;6539531;22;19995;-85
2022/05/19 04:21:27;;;;;;;13.93;12.32;;;;;;;;;;6540060;22;20018;-85
2022/05/19 04:23:58;;;;;;;13.27;12.05;;;;;;;;;;6539817;22;20003;-82
2022/05/19 04:26:29;;;;;;;12.55;11.50;;;;;;;;;;6548810;22;19995;-83
2022/05/19 04:28:59;;;;;;;13.87;12.50;;;;;;;;;;6550478;22;19991;-82
2022/05/19 04:31:29;;;;;;;14.50;13.32;;;;;;;;;;6523019;22;20221;-83
2022/05/19 04:33:59;;;;;;;18.48;11.10;;;;;;;;;;6550339;22;20029;-83
2022/05/19 04:36:30;;;;;;;12.50;11.67;;;;;;;;;;6540499;22;20017;-84
2022/05/19 04:39:00;;;;;;;14.80;13.30;;;;;;;;;;6510773;22;20256;-84
2022/05/19 04:41:30;;;;;;;13.48;12.38;;;;;;;;;;6536565;22;20104;-83
2022/05/19 04:44:01;;;;;;;12.82;11.63;;;;;;;;;;6509193;22;19996;-83
2022/05/19 04:46:31;;;;;;;14.70;13.48;;;;;;;;;;6509312;22;20011;-82
2022/05/19 04:49:02;;;;;;;14.77;13.63;;;;;;;;;;6537223;22;20484;-83
2022/05/19 04:51:32;;;;;;;14.50;13.23;;;;;;;;;;6537120;22;20225;-82
2022/05/19 04:54:02;;;;;;;14.57;13.45;;;;;;;;;;6510187;22;20364;-82
2022/05/19 04:56:33;;;;;;;13.13;11.85;;;;;;;;;;6536703;22;20070;-82
2022/05/19 04:59:04;;;;;;;14.48;13.38;;;;;;;;;;6509709;22;19999;-82
2022/05/19 05:01:35;;;;;;;15.35;12.00;;;;;;;;;;6509919;22;20022;-82
2022/05/19 05:04:05;;;;;;;13.73;12.52;;;;;;;;;;6509669;22;20458;-84
2022/05/19 05:06:35;;;;;;;14.00;11.97;;;;;;;;;;6537572;22;20177;-84
2022/05/19 05:09:06;;;;;;;13.23;12.02;;;;;;;;;;6509043;22;20229;-83
2022/05/19 05:11:39;;;;;;;15.52;14.20;;;;;;;;;;6538607;22;19987;-83
2022/05/19 05:14:09;;;;;;;11.90;10.98;;;;;;;;;;6537574;22;19999;-82
2022/05/19 05:16:39;;;;;;;12.15;11.18;;;;;;;;;;6512067;22;20002;-82
2022/05/19 05:19:10;;;;;;;11.95;11.05;;;;;;;;;;6539220;22;20022;-82
2022/05/19 05:21:40;;;;;;;12.03;11.03;;;;;;;;;;6539242;22;20011;-83
2022/05/19 05:24:10;;;;;;;11.63;10.65;;;;;;;;;;6510826;22;20233;-83
2022/05/19 05:26:41;;;;;;;16.88;9.88;;;;;;;;;;6513126;22;19996;-82
2022/05/19 05:29:11;;;;;;;9.20;8.38;;;;;;;;;;6535752;22;20446;-84
2022/05/19 05:31:41;;;;;;;9.93;9.23;;;;;;;;;;6513910;22;19991;-83
2022/05/19 05:34:11;;;;;;;7.57;7.05;;;;;;;;;;6543134;22;20015;-82
2022/05/19 05:36:42;;;;;;;9.68;8.82;;;;;;;;;;6515656;22;20006;-82
2022/05/19 05:39:12;;;;;;;10.00;9.23;;;;;;;;;;6537216;22;20095;-82
2022/05/19 05:41:42;;;;;;;10.27;9.23;;;;;;;;;;6539655;22;20021;-82
2022/05/19 05:44:13;;;;;;;9.63;8.93;;;;;;;;;;6511125;22;20053;-83
2022/05/19 05:46:44;;;;;;;10.65;9.70;;;;;;;;;;6550704;22;20003;-82
2022/05/19 05:49:14;;;;;;;10.68;9.88;;;;;;;;;;6571850;22;20201;-82
2022/05/19 05:51:46;;;;;;;8.43;7.78;;;;;;;;;;6542350;22;20360;-80
2022/05/19 05:54:16;;;;;;;8.63;8.00;;;;;;;;;;6538708;22;20010;-80
2022/05/19 05:56:46;;;;;;;8.27;7.55;;;;;;;;;;6567493;22;20272;-82
2022/05/19 05:59:16;;;;;;;9.38;8.82;;;;;;;;;;6543977;22;20071;-82
2022/05/19 06:01:47;;;;;;;10.60;9.77;;;;;;;;;;6572230;22;19990;-82
2022/05/19 06:04:18;;;;;;;9.93;9.20;;;;;;;;;;6542934;22;20245;-82
2022/05/19 06:06:48;;;;;;;9.43;8.63;;;;;;;;;;6569907;22;20353;-82
2022/05/19 06:09:18;;;;;;;9.50;8.90;;;;;;;;;;6570964;22;19990;-82
2022/05/19 06:11:49;;;;;;;9.00;8.18;;;;;;;;;;6570713;22;20334;-84
2022/05/19 06:14:19;;;;;;;10.13;9.38;;;;;;;;;;6573140;22;19998;-83
2022/05/19 06:16:49;;;;;;;11.73;10.75;;;;;;;;;;6576409;22;19995;-84
2022/05/19 06:19:20;;;;;;;9.02;8.45;;;;;;;;;;6571676;22;19995;-83
2022/05/19 06:21:50;;;;;;;9.75;9.02;;;;;;;;;;6544337;22;20002;-83
2022/05/19 06:24:20;;;;;;;12.80;11.73;;;;;;;;;;6568991;22;20022;-83
2022/05/19 06:26:51;;;;;;;13.07;12.00;;;;;;;;;;6541198;22;20240;-84
2022/05/19 06:29:21;;;;;;;11.40;10.60;;;;;;;;;;6542349;22;20014;-82
2022/05/19 06:31:51;;;;;;;10.88;10.00;;;;;;;;;;6543044;22;20002;-82
2022/05/19 06:34:21;;;;;;;14.05;12.75;;;;;;;;;;6569708;22;20333;-81
2022/05/19 06:36:52;;;;;;;13.75;11.15;;;;;;;;;;6570243;22;19991;-81
2022/05/19 06:39:22;;;;;;;14.45;13.30;;;;;;;;;;6570335;22;20021;-83
2022/05/19 06:42:01;;;;;;;11.88;10.90;;;;;;;;;;6544322;22;19995;-82
2022/05/19 06:44:36;;;;;;;12.07;11.15;;;;;;;;;;6544352;22;19999;-83
2022/05/19 06:47:13;;;;;;;12.07;11.20;;;;;;;;;;6570974;22;20003;-82
2022/05/19 06:49:45;;;;;;;14.75;13.32;;;;;;;;;;6544241;22;20005;-83
2022/05/19 06:52:17;;;;;;;15.45;14.15;;;;;;;;;;6543692;22;19998;-81
2022/05/19 06:54:54;;;;;;;14.25;13.10;;;;;;;;;;6570733;22;19998;-82
2022/05/19 06:57:25;;;;;;;15.65;14.38;;;;;;;;;;6544224;22;20334;-84
2022/05/19 06:59:55;;;;;;;13.13;12.02;;;;;;;;;;6545229;22;20005;-81
2022/05/19 07:02:25;;;;;;;13.27;12.32;;;;;;;;;;6571653;22;19991;-81
2022/05/19 07:04:55;;;;;;;12.95;11.90;;;;;;;;;;6570656;22;20006;-83
2022/05/19 07:07:26;;;;;;;15.17;13.97;;;;;;;;;;6544271;22;20005;-82
2022/05/19 07:09:56;;;;;;;14.00;12.87;;;;;;;;;;6544093;22;20026;-83
2022/05/19 07:12:26;;;;;;;11.77;10.97;;;;;;;;;;6574970;22;20228;-83
2022/05/19 07:14:57;;;;;;;11.95;10.95;;;;;;;;;;6581068;22;20225;-83
2022/05/19 07:17:27;;;;;;;13.60;11.67;;;;;;;;;;6577407;22;19995;-83
2022/05/19 07:22:46;;;;;;;11.75;10.40;;;;;;;;;;6572139;22;20049;-83
2022/05/19 07:25:17;;;;;;;10.40;8.83;;;;;;;;;;6570995;22;19998;-83
2022/05/19 07:27:48;;;;;;;9.73;9.13;;;;;;;;;;6571878;22;20299;-83
2022/05/19 07:30:18;;;;;;;9.85;9.07;;;;;;;;;;6542976;22;19998;-83
2022/05/19 07:32:48;;;;;;;8.50;7.00;;;;;;;;;;6571403;22;19991;-87
2022/05/19 07:35:19;;;;;;;8.60;8.02;;;;;;;;;;6544761;22;20085;-87
2022/05/19 07:37:49;;;;;;;8.60;7.82;;;;;;;;;;6570696;22;20002;-88
2022/05/19 07:40:20;;;;;;;7.55;6.95;;;;;;;;;;6542233;22;19995;-89
2022/05/19 07:42:50;;;;;;;7.20;6.72;;;;;;;;;;6544463;22;20002;-89
2022/05/19 07:45:21;;;;;;;6.75;6.25;;;;;;;;;;6571733;22;20382;-89
2022/05/19 07:47:51;;;;;;;8.90;8.20;;;;;;;;;;6571789;22;19999;-89
2022/05/19 07:50:22;;;;;;;7.40;6.82;;;;;;;;;;6544297;22;20025;-89
2022/05/19 07:52:52;;;;;;;7.88;7.28;;;;;;;;;;6544296;22;20048;-80
2022/05/19 07:55:22;;;;;;;8.02;6.43;;;;;;;;;;6569524;22;20129;-82
2022/05/19 07:57:52;;;;;;;8.63;7.80;;;;;;;;;;6541087;22;20003;-82
2022/05/19 08:00:23;;;;;;;7.77;7.27;;;;;;;;;;6540991;22;19994;-84
2022/05/19 08:02:53;;;;;;;8.77;7.00;;;;;;;;;;6542763;22;20319;-84
2022/05/19 08:05:23;;;;;;;9.47;8.53;;;;;;;;;;6572979;22;20018;-82
2022/05/19 08:07:54;;;;;;;6.90;6.40;;;;;;;;;;6573702;22;20292;-82
2022/05/19 08:10:24;;;;;;;8.63;7.85;;;;;;;;;;6572388;22;20020;-83
2022/05/19 08:15:45;;;;;;;6.70;5.25;;;;;;;;;;6572202;22;20120;-83
2022/05/19 08:18:20;;;;;;;8.15;7.50;;;;;;;;;;6572536;22;19995;-80
2022/05/19 08:21:00;;;;;;;6.90;6.20;;;;;;;;;;6570465;22;19995;-82
2022/05/19 08:23:32;;;;;;;9.63;8.82;;;;;;;;;;6569909;22;20044;-84
2022/05/19 08:26:02;;;;;;;6.97;6.22;;;;;;;;;;6571124;22;20002;-83
2022/05/19 08:28:33;;;;;;;10.20;6.47;;;;;;;;;;6542798;22;20371;-82
2022/05/19 08:31:05;;;;;;;11.57;7.10;;;;;;;;;;6571199;22;19991;-81
2022/05/19 08:33:36;;;;;;;5.80;5.30;;;;;;;;;;6542668;22;20546;-82
2022/05/19 08:36:07;;;;;;;8.30;6.78;;;;;;;;;;6572576;22;20024;-80
2022/05/19 08:38:40;;;;;;;7.55;6.80;;;;;;;;;;6571913;22;20020;-81
2022/05/19 08:41:29;;;;;;;7.63;6.75;;;;;;;;;;6544185;22;20010;-84
2022/05/19 08:44:02;;;;;;;6.85;6.40;;;;;;;;;;6571636;22;20063;-83
2022/05/19 08:46:36;;;;;;;11.18;8.07;;;;;;;;;;6543771;22;20007;-81
2022/05/19 08:49:24;;;;;;;8.15;7.32;;;;;;;;;;6571882;22;19999;-83
2022/05/19 08:51:59;;;;;;;8.18;7.68;;;;;;;;;;6544899;22;20002;-83
2022/05/19 08:54:31;;;;;;;7.55;7.03;;;;;;;;;;6571290;22;20449;-83
2022/05/19 08:57:12;;;;;;;8.00;7.50;;;;;;;;;;6572683;22;20005;-82
2022/05/19 09:00:04;;;;;;;8.38;7.78;;;;;;;;;;6544912;22;20002;-82
2022/05/19 09:03:07;;;;;;;8.77;8.07;;;;;;;;;;6573161;22;20033;-84
2022/05/19 09:05:56;;;;;;;6.25;5.85;;;;;;;;;;6486735;22;20017;-84
2022/05/19 09:08:26;;;;;;;;;;;;;;;;;;6545747;22;20188;-83
2022/05/19 09:10:59;;;;;;;7.97;7.13;;;;;;;;;;6572317;22;19902;-83
2022/05/19 09:13:51;;;;;;;6.57;6.05;;;;;;;;;;6544870;22;20009;-85
2022/05/19 09:16:23;;;;;;;7.38;6.82;;;;;;;;;;6572911;22;19998;-83
2022/05/19 09:19:06;;;;;;;6.35;5.55;;;;;;;;;;6572644;22;19990;-82
2022/05/19 09:21:38;;;;;;;8.27;7.53;;;;;;;;;;6571877;22;19995;-81
2022/05/19 09:24:11;;;;;;;6.38;5.80;;;;;;;;;;6569124;22;20021;-83
2022/05/19 09:26:45;;;;;;;8.48;7.88;;;;;;;;;;6571128;22;20041;-80
2022/05/19 09:29:19;;;;;;;6.32;5.90;;;;;;;;;;6575456;22;20038;-82
2022/05/19 09:31:54;;;;;;;8.35;7.57;;;;;;;;;;6582500;22;20024;-80
2022/05/19 09:34:27;;;;;;;6.80;6.30;;;;;;;;;;6579739;22;20002;-80
2022/05/19 09:37:06;;;;;;;6.28;5.78;;;;;;;;;;6553318;22;20032;-80
2022/05/19 09:40:06;;;;;;;6.32;5.75;;;;;;;;;;6554365;22;19999;-82
2022/05/19 09:42:54;;;;;;;5.43;5.13;;;;;;;;;;6538818;22;20097;-82
2022/05/19 09:45:25;;;;;;;7.13;6.53;;;;;;;;;;6571764;22;19995;-81
2022/05/19 09:48:01;;;;;;;6.40;5.88;;;;;;;;;;6572135;22;19998;-83
2022/05/19 09:50:36;;;;;;;10.32;6.80;;;;;;;;;;6544865;22;20002;-82
2022/05/19 09:53:11;;;;;;;5.63;5.30;;;;;;;;;;6573057;22;20021;-81
2022/05/19 09:55:42;;;;;;;6.43;5.90;;;;;;;;;;6544634;22;19999;-82
2022/05/19 09:58:15;;;;;;;7.07;5.82;;;;;;;;;;6541321;22;20006;-81
2022/05/19 10:00:48;;;;;;;5.57;5.18;;;;;;;;;;6570050;22;20009;-82
2022/05/19 10:03:34;;;;;;;9.02;6.15;;;;;;;;;;6569997;22;20022;-82
2022/05/19 10:06:14;;;;;;;4.85;4.32;;;;;;;;;;6542156;22;20040;-82
2022/05/19 10:08:48;;;;;;;4.22;3.92;;;;;;;;;;6538328;22;20463;-62
2022/05/19 10:11:27;;;;;;;6.85;6.35;;;;;;;;;;6552653;22;20022;-62
2022/05/19 10:14:04;;;;;;;6.15;3.75;;;;;;;;;;6551887;22;20018;-62
2022/05/19 10:16:58;;;;;;;5.32;4.18;;;;;;;;;;6552677;22;20144;-62
2022/05/19 10:19:36;;;;;;;5.30;4.65;;;;;;;;;;6552570;22;19995;-62
2022/05/19 10:22:07;;;;;;;4.50;4.10;;;;;;;;;;6552974;22;20021;-63
2022/05/19 10:25:00;;;;;;;5.07;4.57;;;;;;;;;;6551708;22;19999;-63
2022/05/19 10:33:17;;;;;;;;;;;;;;;;;;6554200;22;20048;-62
2022/05/19 10:36:05;;;;;;;5.30;4.80;;;;;;;;;;6552321;22;19899;-61
2022/05/19 10:38:38;;;;;;;4.80;4.28;;;;;;;;;;6553538;22;20032;-62
2022/05/19 10:41:24;;;;;;;7.03;4.25;;;;;;;;;;6552954;22;20180;-61
2022/05/19 10:44:06;;;;;;;6.38;5.30;;;;;;;;;;6552429;22;19999;-62
2022/05/19 10:46:55;;;;;;;4.78;4.47;;;;;;;;;;6552487;22;19998;-62
2022/05/19 10:49:32;;;;;;;6.55;4.90;;;;;;;;;;6553972;22;19998;-62
2022/05/19 10:52:15;;;;;;;9.02;3.92;;;;;;;;;;6554146;22;19995;-63
2022/05/19 10:54:46;;;;;;;6.32;4.60;;;;;;;;;;6554571;22;20329;-62
2022/05/19 10:57:36;;;;;;;14.48;6.45;;;;;;;;;;6555516;22;20013;-63
2022/05/19 11:00:18;;;;;;;6.05;4.85;;;;;;;;;;6554803;22;20421;-62
2022/05/19 11:03:07;;;;;;;5.88;4.00;;;;;;;;;;6554953;22;20356;-63
2022/05/19 11:05:37;;;;;;;;;;;;;;;;;;6556064;22;19999;-61
2022/05/19 11:08:12;;;;;;;9.20;3.67;;;;;;;;;;6553162;22;19933;-61
2022/05/19 11:10:42;;;;;;;16.67;9.38;;;;;;;;;;6553017;22;20233;-60
2022/05/19 11:13:18;;;;;;;17.23;15.50;;;;;;;;;;6552567;22;20435;-60
2022/05/19 11:16:07;;;;;;;16.75;15.43;;;;;;;;;;6553170;22;19998;-61
2022/05/19 11:18:58;;;;;;;8.13;7.63;;;;;;;;;;6552052;22;20337;-60
2022/05/19 11:21:47;;;;;;;6.63;6.03;;;;;;;;;;6553754;22;20062;-60
2022/05/19 11:24:22;;;;;;;5.60;5.22;;;;;;;;;;6552979;22;20030;-59
2022/05/19 11:27:09;;;;;;;9.57;5.50;;;;;;;;;;6552363;22;19994;-61
2022/05/19 11:29:49;;;;;;;4.15;3.95;;;;;;;;;;6553885;22;19995;-61
2022/05/19 11:32:19;;;;;;;;;;;;;;;;;;6555637;22;20063;-61
2022/05/19 11:34:58;;;;;;;4.68;4.40;;;;;;;;;;6555201;22;19898;-60
2022/05/19 11:37:34;;;;;;;4.03;3.78;;;;;;;;;;6553742;22;20011;-61
2022/05/19 11:40:14;;;;;;;4.47;4.10;;;;;;;;;;6552894;22;20098;-61
2022/05/19 11:43:06;;;;;;;10.45;4.47;;;;;;;;;;6553144;22;20033;-62
2022/05/19 11:45:50;;;;;;;13.57;3.78;;;;;;;;;;6552732;22;19998;-61
2022/05/19 11:57:08;;;;;;;6.57;6.18;;;;;;;;;;6530124;22;20416;-61
2022/05/19 11:59:39;;;;;;;6.53;5.80;;;;;;;;;;6552425;22;20067;-61
2022/05/19 12:02:10;;;;;;;5.40;4.93;;;;;;;;;;6552827;22;20006;-60
2022/05/19 12:04:46;;;;;;;8.30;6.60;;;;;;;;;;6552266;22;20379;-61
2022/05/19 12:07:24;;;;;;;12.75;8.13;;;;;;;;;;6553021;22;20341;-61
2022/05/19 12:09:59;;;;;;;5.85;5.55;;;;;;;;;;6552976;22;20444;-61
2022/05/19 12:12:36;;;;;;;7.57;6.75;;;;;;;;;;6552345;22;20015;-61
2022/05/19 12:15:18;;;;;;;7.25;6.60;;;;;;;;;;6552396;22;20003;-61
2022/05/19 12:17:55;;;;;;;7.05;6.55;;;;;;;;;;6552520;22;20006;-61
2022/05/19 12:20:45;;;;;;;10.10;8.38;;;;;;;;;;6551994;22;19998;-61
2022/05/19 12:26:28;;;;;;;9.02;7.97;;;;;;;;;;6551702;22;20244;-61
2022/05/19 12:29:01;;;;;;;8.55;7.28;;;;;;;;;;6552449;22;20021;-62
2022/05/19 12:34:27;;;;;;;7.47;6.78;;;;;;;;;;6553853;22;20009;-62
2022/05/19 12:37:29;;;;;;;9.40;8.65;;;;;;;;;;6552517;22;20078;-62
2022/05/19 12:40:18;;;;;;;9.98;9.00;;;;;;;;;;6551894;22;20013;-62
2022/05/19 12:42:49;;;;;;;8.25;7.68;;;;;;;;;;6552094;22;20006;-63
2022/05/19 12:48:26;;;;;;;8.98;6.65;;;;;;;;;;6542174;22;20038;-91
2022/05/19 12:57:39;;;;;;;7.70;7.15;;;;;;;;;;6396196;22;20010;-62
2022/05/19 13:00:18;;;;;;;8.10;6.50;;;;;;;;;;6494455;22;20433;-61
2022/05/19 13:02:57;;;;;;;6.65;6.35;;;;;;;;;;6494538;22;20086;-61
2022/05/19 13:05:34;;;;;;;7.55;6.93;;;;;;;;;;6495157;22;19999;-64
2022/05/19 13:08:34;;;;;;;9.95;9.18;;;;;;;;;;6494255;22;19992;-61
2022/05/19 13:11:16;;;;;;;7.90;7.28;;;;;;;;;;6461005;22;20491;-62
2022/05/19 13:13:50;;;;;;;8.73;7.90;;;;;;;;;;6493862;22;20056;-62
2022/05/19 13:16:29;;;;;;;8.88;8.00;;;;;;;;;;6494034;22;20433;-62
2022/05/19 13:19:26;;;;;;;9.20;7.63;;;;;;;;;;6494034;22;20094;-59
2022/05/19 13:21:58;;;;;;;8.15;7.22;;;;;;;;;;6487117;22;20416;-60
2022/05/19 13:24:32;;;;;;;8.02;6.72;;;;;;;;;;6493666;22;20340;-60
2022/05/19 13:32:40;;;;;;;5.20;4.90;;;;;;;;;;6520174;22;20009;-63
2022/05/19 13:35:16;;;;;;;6.43;4.32;;;;;;;;;;6493177;22;20027;-63
2022/05/19 13:37:47;;;;;;;5.35;4.95;;;;;;;;;;6493574;22;20365;-63
2022/05/19 13:40:18;;;;;;;7.32;6.47;;;;;;;;;;6493325;22;20048;-62
2022/05/19 13:42:52;;;;;;;6.80;5.45;;;;;;;;;;6492949;22;20063;-63
2022/05/19 13:45:25;;;;;;;6.05;5.53;;;;;;;;;;6492741;22;20029;-63
2022/05/19 13:47:55;;;;;;;5.82;5.50;;;;;;;;;;6493759;22;20056;-63
2022/05/19 13:50:27;;;;;;;5.68;5.38;;;;;;;;;;6492724;22;19991;-63
2022/05/19 13:53:00;;;;;;;5.60;5.10;;;;;;;;;;6493031;22;20091;-63
2022/05/19 13:55:32;;;;;;;7.93;6.15;;;;;;;;;;6492511;22;20030;-62
2022/05/19 13:58:04;;;;;;;6.10;5.78;;;;;;;;;;6492826;22;20086;-62
2022/05/19 14:00:35;;;;;;;5.85;5.45;;;;;;;;;;6492974;22;20056;-62
2022/05/19 14:03:07;;;;;;;7.43;7.03;;;;;;;;;;6493256;22;19995;-62
2022/05/19 14:05:40;;;;;;;7.57;7.07;;;;;;;;;;6492605;22;20008;-61
2022/05/19 14:08:12;;;;;;;7.55;6.63;;;;;;;;;;6493523;22;20414;-62
2022/05/19 14:10:44;;;;;;;4.60;4.40;;;;;;;;;;6493466;22;19999;-62
2022/05/19 14:13:15;;;;;;;9.43;6.78;;;;;;;;;;6493202;22;20092;-62
2022/05/19 14:15:52;;;;;;;6.82;6.53;;;;;;;;;;6493476;22;20003;-62
2022/05/19 14:18:24;;;;;;;8.23;7.55;;;;;;;;;;6521500;22;20494;-62
2022/05/19 14:20:56;;;;;;;6.30;5.72;;;;;;;;;;6493627;22;20279;-62
2022/05/19 14:23:47;;;;;;;6.00;5.60;;;;;;;;;;6492793;22;20064;-62
2022/05/19 14:26:21;;;;;;;5.05;4.75;;;;;;;;;;6493868;22;20078;-62
2022/05/19 14:28:53;;;;;;;7.57;6.05;;;;;;;;;;6493250;22;20341;-63
2022/05/19 14:31:31;;;;;;;5.32;4.82;;;;;;;;;;6493406;22;19995;-63
2022/05/19 14:34:02;;;;;;;4.95;4.75;;;;;;;;;;6493028;22;20000;-62
2022/05/19 14:36:41;;;;;;;4.72;4.43;;;;;;;;;;6521268;22;20410;-63
2022/05/19 14:39:24;;;;;;;5.45;5.15;;;;;;;;;;6493950;22;19999;-63
2022/05/19 14:44:47;;;;;;;4.25;3.83;;;;;;;;;;6521128;22;20493;-63
2022/05/19 14:47:35;;;;;;;11.77;3.70;;;;;;;;;;6493612;22;20021;-63
2022/05/19 14:50:08;;;;;;;3.70;3.42;;;;;;;;;;6493160;22;20075;-65
2022/05/19 14:52:45;;;;;;;5.13;3.67;;;;;;;;;;6493405;22;20034;-63
2022/05/19 14:55:35;;;;;;;4.60;4.25;;;;;;;;;;6492475;22;20004;-62
2022/05/19 14:58:29;;;;;;;4.38;4.18;;;;;;;;;;6491815;22;20031;-63
2022/05/19 15:00:59;;;;;;;4.50;3.85;;;;;;;;;;6492445;22;19999;-62
2022/05/19 15:03:30;;;;;;;4.38;4.07;;;;;;;;;;6494623;22;20056;-62
2022/05/19 15:06:01;;;;;;;3.53;3.25;;;;;;;;;;6494545;22;20019;-62
2022/05/19 15:08:32;;;;;;;4.63;4.25;;;;;;;;;;6494832;22;20418;-62
2022/05/19 15:11:04;;;;;;;4.10;3.90;;;;;;;;;;6495259;22;19991;-62
2022/05/19 15:13:34;;;;;;;3.65;3.35;;;;;;;;;;6494510;22;20003;-62
2022/05/19 15:16:05;;;;;;;3.72;3.53;;;;;;;;;;6495448;22;20006;-62
2022/05/19 15:18:35;;;;;;;5.53;5.07;;;;;;;;;;6495150;22;20182;-62
2022/05/19 15:21:06;;;;;;;5.07;4.68;;;;;;;;;;6495230;22;20238;-63
2022/05/19 15:23:39;;;;;;;4.65;4.30;;;;;;;;;;6495115;22;20007;-63
2022/05/19 15:26:11;;;;;;;4.35;4.13;;;;;;;;;;6495293;22;20022;-63
2022/05/19 15:28:42;;;;;;;4.10;3.80;;;;;;;;;;6495587;22;20287;-63
2022/05/19 15:31:14;;;;;;;4.68;4.38;;;;;;;;;;6496302;22;20033;-63
2022/05/19 15:33:44;;;;;;;5.03;3.80;;;;;;;;;;6495844;22;20026;-63
2022/05/19 15:36:17;;;;;;;4.20;3.90;;;;;;;;;;6496565;22;20003;-63
2022/05/19 15:38:47;;;;;;;5.22;4.82;;;;;;;;;;6496076;22;20317;-63
2022/05/19 15:41:22;;;;;;;4.88;3.92;;;;;;;;;;6495622;22;20019;-63
2022/05/19 15:43:53;;;;;;;4.20;4.00;;;;;;;;;;6494959;22;20083;-63
2022/05/19 15:46:23;;;;;;;5.15;4.75;;;;;;;;;;6495826;22;20396;-63
2022/05/19 15:48:53;;;;;;;3.72;3.55;;;;;;;;;;6495239;22;19999;-63
2022/05/19 15:51:24;;;;;;;4.40;4.13;;;;;;;;;;6495435;22;20078;-63
2022/05/19 15:53:54;;;;;;;3.97;3.78;;;;;;;;;;6494604;22;20005;-63
2022/05/19 15:56:25;;;;;;;4.25;4.03;;;;;;;;;;6495463;22;20457;-63
2022/05/19 15:58:55;;;;;;;6.00;5.63;;;;;;;;;;6495236;22;20443;-63
2022/05/19 16:01:25;;;;;;;6.55;4.03;;;;;;;;;;6495086;22;20034;-63
2022/05/19 16:03:56;;;;;;;4.10;3.85;;;;;;;;;;6495039;22;20006;-63
2022/05/19 16:06:26;;;;;;;3.95;3.35;;;;;;;;;;6522246;22;20064;-63
2022/05/19 16:08:56;;;;;;;5.25;4.07;;;;;;;;;;6495194;22;20012;-63
2022/05/19 16:11:30;;;;;;;4.25;3.95;;;;;;;;;;6494852;22;20000;-63
2022/05/19 16:14:01;;;;;;;4.53;4.22;;;;;;;;;;6493848;22;20082;-63
2022/05/19 16:16:31;;;;;;;11.27;6.22;;;;;;;;;;6494677;22;20046;-62
2022/05/19 16:19:01;;;;;;;6.30;5.82;;;;;;;;;;6494325;22;20088;-62
2022/05/19 16:21:32;;;;;;;7.20;6.28;;;;;;;;;;6494351;22;20022;-63
2022/05/19 16:24:04;;;;;;;6.28;5.88;;;;;;;;;;6494055;22;20378;-63
2022/05/19 16:26:34;;;;;;;8.65;7.70;;;;;;;;;;6494521;22;20003;-62
2022/05/19 16:29:05;;;;;;;8.05;7.30;;;;;;;;;;6522020;22;20010;-62